Time,TemperatureF,DewpointF,PressureIn,WindDirection,WindDirectionDegrees,WindSpeedMPH,WindSpeedGustMPH,Humidity,HourlyPrecipIn,Conditions,Clouds,dailyrainin,SoftwareType,DateUTC
2013-05-21 00:00:00,47.8,44.1,30.22,SSE,155,2.0,2.0,87,0.00,,,0.00,Wunderground v.1.15,2013-05-21 03:00:00,
2013-05-21 00:10:00,47.7,44.0,30.22,SSE,163,2.0,2.0,87,0.00,,,0.00,Wunderground v.1.15,2013-05-21 03:10:00,
2013-05-21 00:20:00,47.6,44.2,30.21,SSE,152,2.0,22.0,88,0.00,,,0.00,Wunderground v.1.15,2013-05-21 03:20:00,
2013-05-21 00:30:00,47.5,44.1,30.21,SSE,153,1.0,22.0,88,0.00,,,0.00,Wunderground v.1.15,2013-05-21 03:30:00,
2013-05-21 00:40:00,47.4,44.3,30.21,SSE,167,2.0,2.0,89,0.00,,,0.00,Wunderground v.1.15,2013-05-21 03:40:00,
2013-05-21 00:50:00,47.4,44.3,30.21,South,190,2.0,22.0,89,0.00,,,0.00,Wunderground v.1.15,2013-05-21 03:50:00,
2013-05-21 01:00:00,47.4,44.3,30.21,SSE,149,3.0,22.0,89,0.00,,,0.00,Wunderground v.1.15,2013-05-21 04:00:00,
2013-05-21 01:10:00,47.4,44.3,30.21,SE,146,4.0,22.0,89,0.00,,,0.00,Wunderground v.1.15,2013-05-21 04:10:00,
2013-05-21 01:20:00,47.3,44.2,30.21,SSE,165,4.0,4.0,89,0.00,,,0.00,Wunderground v.1.15,2013-05-21 04:20:00,
2013-05-21 01:30:00,47.2,44.1,30.21,South,173,4.0,4.0,89,0.00,,,0.00,Wunderground v.1.15,2013-05-21 04:30:00,
2013-05-21 01:40:00,47.1,44.3,30.21,SSW,212,4.0,22.0,90,0.00,,,0.00,Wunderground v.1.15,2013-05-21 04:40:00,
2013-05-21 01:50:00,46.8,44.3,30.21,South,181,4.0,22.0,91,0.00,,,0.00,Wunderground v.1.15,2013-05-21 04:50:00,
2013-05-21 02:00:00,46.5,44.3,30.21,SSW,193,4.0,22.0,92,0.00,,,0.00,Wunderground v.1.15,2013-05-21 05:00:00,
2013-05-21 02:10:00,46.3,44.4,30.21,South,177,3.0,3.0,93,0.00,,,0.00,Wunderground v.1.15,2013-05-21 05:10:00,
2013-05-21 02:20:00,46.1,44.2,30.21,SSE,156,3.0,22.0,93,0.00,,,0.00,Wunderground v.1.15,2013-05-21 05:20:00,
2013-05-21 02:30:00,46.1,44.5,30.21,SE,143,3.0,22.0,94,0.00,,,0.00,Wunderground v.1.15,2013-05-21 05:30:00,
2013-05-21 02:40:00,46.1,44.5,30.20,South,174,3.0,3.0,94,0.00,,,0.00,Wunderground v.1.15,2013-05-21 05:40:00,
2013-05-21 02:50:00,46.0,44.4,30.20,SSE,157,4.0,22.0,94,0.00,,,0.01,Wunderground v.1.15,2013-05-21 05:50:00,
2013-05-21 03:00:00,46.0,44.6,30.20,SSW,211,3.0,22.0,95,0.00,,,0.01,Wunderground v.1.15,2013-05-21 06:00:00,
2013-05-21 03:10:00,46.0,44.6,30.20,SSE,157,4.0,4.0,95,0.00,,,0.01,Wunderground v.1.15,2013-05-21 06:10:00,
2013-05-21 03:20:00,45.9,44.5,30.19,SSE,150,3.0,3.0,95,0.00,,,0.02,Wunderground v.1.15,2013-05-21 06:20:00,
2013-05-21 03:30:00,45.9,44.5,30.19,South,180,4.0,4.0,95,0.00,,,0.02,Wunderground v.1.15,2013-05-21 06:30:00,
2013-05-21 03:40:00,45.9,44.5,30.19,SE,145,3.0,3.0,95,0.00,,,0.02,Wunderground v.1.15,2013-05-21 06:40:00,
2013-05-21 03:50:00,45.9,44.5,30.19,SSE,158,3.0,22.0,95,0.00,,,0.02,Wunderground v.1.15,2013-05-21 06:50:00,
2013-05-21 04:00:00,45.9,44.8,30.19,South,180,4.0,4.0,96,0.00,,,0.02,Wunderground v.1.15,2013-05-21 07:00:00,
2013-05-21 04:10:00,46.0,44.9,30.19,SSE,164,3.0,3.0,96,0.00,,,0.02,Wunderground v.1.15,2013-05-21 07:10:00,
2013-05-21 04:20:00,45.9,44.8,30.19,SE,141,3.0,22.0,96,0.00,,,0.02,Wunderground v.1.15,2013-05-21 07:20:00,
2013-05-21 04:30:00,45.9,44.8,30.19,SSW,206,4.0,4.0,96,0.00,,,0.02,Wunderground v.1.15,2013-05-21 07:30:00,
2013-05-21 04:40:00,45.9,44.8,30.19,SSE,155,4.0,4.0,96,0.00,,,0.02,Wunderground v.1.15,2013-05-21 07:40:00,
2013-05-21 04:50:00,45.9,44.8,30.19,South,178,3.0,22.0,96,0.00,,,0.02,Wunderground v.1.15,2013-05-21 07:50:00,
2013-05-21 05:00:00,45.9,44.8,30.19,SSE,149,3.0,22.0,96,0.00,,,0.02,Wunderground v.1.15,2013-05-21 08:00:00,
2013-05-21 05:10:00,45.9,44.8,30.19,South,169,4.0,22.0,96,0.00,,,0.02,Wunderground v.1.15,2013-05-21 08:10:00,
2013-05-21 05:20:00,45.9,44.8,30.19,SSE,159,4.0,22.0,96,0.00,,,0.03,Wunderground v.1.15,2013-05-21 08:20:00,
2013-05-21 05:30:00,45.9,44.8,30.19,SE,133,4.0,22.0,96,0.00,,,0.03,Wunderground v.1.15,2013-05-21 08:30:00,
2013-05-21 05:40:00,45.9,44.8,30.19,SSE,167,5.0,5.0,96,0.00,,,0.03,Wunderground v.1.15,2013-05-21 08:40:00,
2013-05-21 05:50:00,45.9,44.8,30.19,SE,140,4.0,4.0,96,0.00,,,0.03,Wunderground v.1.15,2013-05-21 08:50:00,
2013-05-21 06:00:00,46.0,44.9,30.19,SSE,150,4.0,4.0,96,0.00,,,0.03,Wunderground v.1.15,2013-05-21 09:00:00,
2013-05-21 06:10:00,46.0,44.9,30.19,SSE,150,4.0,22.0,96,0.00,,,0.03,Wunderground v.1.15,2013-05-21 09:10:00,
2013-05-21 06:20:00,46.0,44.9,30.19,South,184,4.0,22.0,96,0.00,,,0.03,Wunderground v.1.15,2013-05-21 09:20:00,
2013-05-21 06:30:00,46.0,44.9,30.19,SSE,151,4.0,22.0,96,0.00,,,0.03,Wunderground v.1.15,2013-05-21 09:30:00,
2013-05-21 06:40:00,46.0,44.9,30.19,South,177,5.0,22.0,96,0.00,,,0.03,Wunderground v.1.15,2013-05-21 09:40:00,
2013-05-21 06:50:00,46.0,44.9,30.19,SSE,162,5.0,22.0,96,0.00,,,0.03,Wunderground v.1.15,2013-05-21 09:50:00,
2013-05-21 07:00:00,46.1,45.0,30.19,South,169,5.0,5.0,96,0.00,,,0.03,Wunderground v.1.15,2013-05-21 10:00:00,
2013-05-21 07:10:00,46.2,45.1,30.19,SSE,166,5.0,5.0,96,0.00,,,0.03,Wunderground v.1.15,2013-05-21 10:10:00,
2013-05-21 07:20:00,46.3,45.2,30.19,SSW,195,5.0,5.0,96,0.00,,,0.03,Wunderground v.1.15,2013-05-21 10:20:00,
2013-05-21 07:30:00,46.3,45.2,30.19,South,181,5.0,22.0,96,0.00,,,0.03,Wunderground v.1.15,2013-05-21 10:30:00,
2013-05-21 07:40:00,46.4,45.3,30.19,SSE,150,5.0,22.0,96,0.00,,,0.03,Wunderground v.1.15,2013-05-21 10:40:00,
2013-05-21 07:50:00,46.4,45.0,30.19,South,191,6.0,6.0,95,0.00,,,0.03,Wunderground v.1.15,2013-05-21 10:50:00,
2013-05-21 08:00:00,46.5,45.4,30.19,SSE,152,5.0,22.0,96,0.00,,,0.03,Wunderground v.1.15,2013-05-21 11:00:00,
2013-05-21 08:10:00,46.6,45.5,30.19,South,187,6.0,6.0,96,0.00,,,0.03,Wunderground v.1.15,2013-05-21 11:10:00,
2013-05-21 08:20:00,46.7,45.3,30.19,South,169,6.0,22.0,95,0.00,,,0.03,Wunderground v.1.15,2013-05-21 11:20:00,
2013-05-21 08:30:00,47.2,46.1,30.19,SSE,150,5.0,22.0,96,0.00,,,0.03,Wunderground v.1.15,2013-05-21 11:30:00,
2013-05-21 08:40:00,47.1,45.7,30.19,SE,146,6.0,22.0,95,0.00,,,0.03,Wunderground v.1.15,2013-05-21 11:40:00,
2013-05-21 08:50:00,47.3,45.9,30.19,SSE,150,6.0,6.0,95,0.00,,,0.03,Wunderground v.1.15,2013-05-21 11:50:00,
2013-05-21 09:00:00,47.6,46.2,30.19,SW,216,7.0,7.0,95,0.00,,,0.03,Wunderground v.1.15,2013-05-21 12:00:00,
2013-05-21 09:10:00,47.8,46.2,30.19,SSE,158,8.0,22.0,94,0.00,,,0.03,Wunderground v.1.15,2013-05-21 12:10:00,
2013-05-21 09:20:00,47.9,46.0,30.19,SE,141,8.0,22.0,93,0.00,,,0.03,Wunderground v.1.15,2013-05-21 12:20:00,
2013-05-21 09:30:00,48.0,46.4,30.19,South,191,7.0,22.0,94,0.00,,,0.03,Wunderground v.1.15,2013-05-21 12:30:00,
2013-05-21 09:40:00,47.9,46.0,30.19,South,190,7.0,22.0,93,0.00,,,0.03,Wunderground v.1.15,2013-05-21 12:40:00,
2013-05-21 09:50:00,48.1,46.5,30.19,South,174,7.0,7.0,94,0.00,,,0.03,Wunderground v.1.15,2013-05-21 12:50:00,
2013-05-21 10:00:00,48.3,46.4,30.19,SE,138,6.0,6.0,93,0.00,,,0.03,Wunderground v.1.15,2013-05-21 13:00:00,
2013-05-21 10:10:00,48.4,46.5,30.19,SSE,166,6.0,22.0,93,0.00,,,0.03,Wunderground v.1.15,2013-05-21 13:10:00,
2013-05-21 10:20:00,48.7,47.1,30.18,SSW,200,7.0,22.0,94,0.00,,,0.03,Wunderground v.1.15,2013-05-21 13:20:00,
2013-05-21 10:30:00,48.9,47.0,30.18,South,175,7.0,7.0,93,0.00,,,0.03,Wunderground v.1.15,2013-05-21 13:30:00,
2013-05-21 10:40:00,49.5,47.3,30.18,SE,141,7.0,7.0,92,0.00,,,0.03,Wunderground v.1.15,2013-05-21 13:40:00,
2013-05-21 10:50:00,49.7,47.2,30.19,SSW,195,7.0,7.0,91,0.00,,,0.03,Wunderground v.1.15,2013-05-21 13:50:00,
2013-05-21 11:00:00,49.9,47.4,30.18,SSW,193,6.0,22.0,91,0.00,,,0.03,Wunderground v.1.15,2013-05-21 14:00:00,
2013-05-21 11:10:00,49.7,47.5,30.19,SW,219,6.0,6.0,92,0.00,,,0.03,Wunderground v.1.15,2013-05-21 14:10:00,
2013-05-21 11:20:00,49.8,47.6,30.19,South,191,6.0,6.0,92,0.00,,,0.03,Wunderground v.1.15,2013-05-21 14:20:00,
2013-05-21 11:30:00,49.8,47.3,30.20,SW,221,6.0,22.0,91,0.00,,,0.03,Wunderground v.1.15,2013-05-21 14:30:00,
2013-05-21 11:40:00,50.2,48.0,30.20,SSW,200,5.0,5.0,92,0.00,,,0.03,Wunderground v.1.15,2013-05-21 14:40:00,
2013-05-21 11:50:00,50.2,47.7,30.20,SSW,198,5.0,5.0,91,0.00,,,0.03,Wunderground v.1.15,2013-05-21 14:50:00,
2013-05-21 12:00:00,50.1,47.9,30.20,SW,236,5.0,22.0,92,0.00,,,0.03,Wunderground v.1.15,2013-05-21 15:00:00,
2013-05-21 12:10:00,49.9,47.7,30.19,South,181,6.0,22.0,92,0.00,,,0.03,Wunderground v.1.15,2013-05-21 15:10:00,
2013-05-21 12:20:00,49.8,47.9,30.19,SSE,162,5.0,5.0,93,0.00,,,0.03,Wunderground v.1.15,2013-05-21 15:20:00,
2013-05-21 12:30:00,49.9,48.0,30.19,SSE,160,4.0,22.0,93,0.00,,,0.03,Wunderground v.1.15,2013-05-21 15:30:00,
2013-05-21 12:40:00,50.2,48.3,30.19,SSW,204,4.0,22.0,93,0.00,,,0.03,Wunderground v.1.15,2013-05-21 15:40:00,
2013-05-21 12:50:00,50.7,48.7,30.19,SSE,148,4.0,4.0,93,0.00,,,0.03,Wunderground v.1.15,2013-05-21 15:50:00,
2013-05-21 13:00:00,51.0,48.8,30.19,SW,224,5.0,5.0,92,0.00,,,0.03,Wunderground v.1.15,2013-05-21 16:00:00,
2013-05-21 13:10:00,51.3,48.8,30.18,South,187,4.0,4.0,91,0.00,,,0.03,Wunderground v.1.15,2013-05-21 16:10:00,
2013-05-21 13:20:00,51.7,49.5,30.18,South,169,4.0,22.0,92,0.00,,,0.03,Wunderground v.1.15,2013-05-21 16:20:00,
2013-05-21 13:30:00,51.9,49.1,30.18,SSW,200,5.0,5.0,90,0.00,,,0.03,Wunderground v.1.15,2013-05-21 16:30:00,
2013-05-21 13:40:00,52.1,49.3,30.18,South,190,5.0,22.0,90,0.00,,,0.03,Wunderground v.1.15,2013-05-21 16:40:00,
2013-05-21 13:50:00,52.6,49.8,30.18,SSW,194,4.0,22.0,90,0.00,,,0.03,Wunderground v.1.15,2013-05-21 16:50:00,
2013-05-21 14:00:00,52.9,50.0,30.18,South,186,4.0,22.0,90,0.00,,,0.03,Wunderground v.1.15,2013-05-21 17:00:00,
2013-05-21 14:10:00,53.2,50.0,30.18,SSW,207,5.0,5.0,89,0.00,,,0.03,Wunderground v.1.15,2013-05-21 17:10:00,
2013-05-21 14:20:00,52.9,49.4,30.18,SE,146,5.0,5.0,88,0.00,,,0.03,Wunderground v.1.15,2013-05-21 17:20:00,
2013-05-21 14:30:00,52.6,49.4,30.18,SSW,207,4.0,22.0,89,0.00,,,0.03,Wunderground v.1.15,2013-05-21 17:30:00,
2013-05-21 14:40:00,52.2,49.4,30.18,SW,218,4.0,22.0,90,0.00,,,0.03,Wunderground v.1.15,2013-05-21 17:40:00,
2013-05-21 14:50:00,51.9,49.6,30.18,SSE,150,5.0,5.0,92,0.00,,,0.03,Wunderground v.1.15,2013-05-21 17:50:00,
2013-05-21 15:00:00,51.9,49.9,30.18,SSW,200,4.0,4.0,93,0.00,,,0.03,Wunderground v.1.15,2013-05-21 18:00:00,
2013-05-21 15:10:00,52.4,50.7,30.18,SW,221,3.0,22.0,94,0.00,,,0.03,Wunderground v.1.15,2013-05-21 18:10:00,
2013-05-21 15:20:00,52.7,50.7,30.18,SSE,161,4.0,22.0,93,0.00,,,0.03,Wunderground v.1.15,2013-05-21 18:20:00,
2013-05-21 15:30:00,53.0,50.7,30.18,SSW,198,4.0,4.0,92,0.00,,,0.03,Wunderground v.1.15,2013-05-21 18:30:00,
2013-05-21 15:40:00,53.3,50.7,30.17,South,183,4.0,4.0,91,0.00,,,0.03,Wunderground v.1.15,2013-05-21 18:40:00,
2013-05-21 15:50:00,53.6,50.7,30.17,WSW,249,3.0,3.0,90,0.00,,,0.03,Wunderground v.1.15,2013-05-21 18:50:00,
2013-05-21 16:00:00,53.5,50.3,30.17,South,185,4.0,4.0,89,0.00,,,0.03,Wunderground v.1.15,2013-05-21 19:00:00,
2013-05-21 16:10:00,53.2,50.3,30.17,SSW,197,5.0,22.0,90,0.00,,,0.03,Wunderground v.1.15,2013-05-21 19:10:00,
2013-05-21 16:20:00,53.6,50.4,30.17,WSW,244,5.0,5.0,89,0.00,,,0.03,Wunderground v.1.15,2013-05-21 19:20:00,
2013-05-21 16:30:00,54.7,51.5,30.17,SSW,198,4.0,22.0,89,0.00,,,0.03,Wunderground v.1.15,2013-05-21 19:30:00,
2013-05-21 16:40:00,55.0,50.9,30.17,SW,221,6.0,22.0,86,0.00,,,0.03,Wunderground v.1.15,2013-05-21 19:40:00,
2013-05-21 16:50:00,55.6,50.8,30.17,SSW,195,5.0,5.0,84,0.00,,,0.03,Wunderground v.1.15,2013-05-21 19:50:00,
2013-05-21 17:00:00,55.9,51.5,30.17,SSW,205,4.0,22.0,85,0.00,,,0.03,Wunderground v.1.15,2013-05-21 20:00:00,
2013-05-21 17:10:00,56.1,51.3,30.17,South,191,3.0,3.0,84,0.00,,,0.03,Wunderground v.1.15,2013-05-21 20:10:00,
2013-05-21 17:20:00,56.0,50.9,30.17,South,184,3.0,22.0,83,0.00,,,0.03,Wunderground v.1.15,2013-05-21 20:20:00,
2013-05-21 17:30:00,54.6,49.9,30.17,NW,308,1.0,1.0,84,0.00,,,0.03,Wunderground v.1.15,2013-05-21 20:30:00,
2013-05-21 17:40:00,53.5,50.0,30.17,North,8,1.0,1.0,88,0.00,,,0.03,Wunderground v.1.15,2013-05-21 20:40:00,
2013-05-21 17:50:00,54.5,51.3,30.17,SE,131,1.0,22.0,89,0.00,,,0.03,Wunderground v.1.15,2013-05-21 20:50:00,
2013-05-21 18:00:00,55.2,51.1,30.17,NNE,26,1.0,1.0,86,0.00,,,0.03,Wunderground v.1.15,2013-05-21 21:00:00,
2013-05-21 18:10:00,55.6,50.5,30.17,North,4,1.0,22.0,83,0.00,,,0.03,Wunderground v.1.15,2013-05-21 21:10:00,
2013-05-21 18:20:00,55.6,50.2,30.17,NW,319,1.0,22.0,82,0.00,,,0.03,Wunderground v.1.15,2013-05-21 21:20:00,
2013-05-21 18:30:00,56.4,50.6,30.17,WNW,301,0.0,22.0,81,0.00,,,0.03,Wunderground v.1.15,2013-05-21 21:30:00,
2013-05-21 18:40:00,56.7,50.6,30.17,WNW,300,0.0,22.0,80,0.00,,,0.03,Wunderground v.1.15,2013-05-21 21:40:00,
2013-05-21 18:50:00,57.0,50.9,30.17,NNW,344,0.0,22.0,80,0.00,,,0.03,Wunderground v.1.15,2013-05-21 21:50:00,
2013-05-21 19:00:00,56.9,50.5,30.18,NW,316,0.0,22.0,79,0.00,,,0.03,Wunderground v.1.15,2013-05-21 22:00:00,
2013-05-21 19:10:00,56.2,50.4,30.17,NNW,335,0.0,22.0,81,0.00,,,0.03,Wunderground v.1.15,2013-05-21 22:10:00,
2013-05-21 19:20:00,54.4,48.7,30.17,WNW,290,0.0,22.0,81,0.00,,,0.03,Wunderground v.1.15,2013-05-21 22:20:00,
2013-05-21 19:30:00,53.4,49.0,30.18,NW,315,1.0,1.0,85,0.00,,,0.03,Wunderground v.1.15,2013-05-21 22:30:00,
2013-05-21 19:40:00,52.5,48.7,30.18,NW,315,0.0,22.0,87,0.00,,,0.03,Wunderground v.1.15,2013-05-21 22:40:00,
2013-05-21 19:50:00,51.3,47.9,30.18,NW,315,0.0,22.0,88,0.00,,,0.03,Wunderground v.1.15,2013-05-21 22:50:00,
2013-05-21 20:00:00,50.6,47.8,30.18,NW,315,0.0,22.0,90,0.00,,,0.03,Wunderground v.1.15,2013-05-21 23:00:00,
2013-05-21 20:10:00,50.1,47.6,30.18,NW,315,0.0,22.0,91,0.00,,,0.03,Wunderground v.1.15,2013-05-21 23:10:00,
2013-05-21 20:20:00,49.4,47.2,30.18,NW,315,0.0,22.0,92,0.00,,,0.03,Wunderground v.1.15,2013-05-21 23:20:00,
2013-05-21 20:30:00,48.9,47.0,30.18,NW,315,0.0,22.0,93,0.00,,,0.03,Wunderground v.1.15,2013-05-21 23:30:00,
2013-05-21 20:40:00,48.7,46.8,30.19,NW,315,0.0,22.0,93,0.00,,,0.03,Wunderground v.1.15,2013-05-21 23:40:00,
2013-05-21 20:50:00,48.2,46.0,30.19,NW,315,0.0,22.0,92,0.00,,,0.03,Wunderground v.1.15,2013-05-21 23:50:00,
2013-05-21 21:00:00,47.5,45.6,30.19,NW,314,0.0,22.0,93,0.00,,,0.03,Wunderground v.1.15,2013-05-22 00:00:00,
2013-05-21 21:10:00,46.2,44.3,30.19,NW,315,0.0,22.0,93,0.00,,,0.03,Wunderground v.1.15,2013-05-22 00:10:00,
2013-05-21 21:20:00,45.5,43.9,30.20,NW,315,0.0,22.0,94,0.00,,,0.03,Wunderground v.1.15,2013-05-22 00:20:00,
2013-05-21 21:30:00,45.2,43.6,30.21,NW,315,0.0,22.0,94,0.00,,,0.03,Wunderground v.1.15,2013-05-22 00:30:00,
2013-05-21 21:40:00,45.1,43.8,30.21,NW,314,0.0,22.0,95,0.00,,,0.03,Wunderground v.1.15,2013-05-22 00:40:00,
2013-05-21 21:50:00,45.0,43.7,30.22,NW,314,0.0,22.0,95,0.00,,,0.03,Wunderground v.1.15,2013-05-22 00:50:00,
2013-05-21 22:00:00,44.8,43.5,30.22,NW,315,0.0,22.0,95,0.00,,,0.03,Wunderground v.1.15,2013-05-22 01:00:00,
2013-05-21 22:10:00,44.4,43.1,30.22,NW,314,0.0,22.0,95,0.00,,,0.03,Wunderground v.1.15,2013-05-22 01:10:00,
2013-05-21 22:20:00,44.1,43.0,30.22,NW,314,0.0,22.0,96,0.00,,,0.03,Wunderground v.1.15,2013-05-22 01:20:00,
2013-05-21 22:30:00,43.9,42.6,30.22,NW,314,0.0,22.0,95,0.00,,,0.03,Wunderground v.1.15,2013-05-22 01:30:00,
2013-05-21 22:40:00,43.5,42.2,30.22,NW,314,0.0,22.0,95,0.00,,,0.03,Wunderground v.1.15,2013-05-22 01:40:00,
2013-05-21 22:50:00,43.6,42.5,30.22,NW,314,0.0,22.0,96,0.00,,,0.03,Wunderground v.1.15,2013-05-22 01:50:00,
2013-05-21 23:00:00,43.4,42.3,30.22,NW,314,0.0,22.0,96,0.00,,,0.03,Wunderground v.1.15,2013-05-22 02:00:00,
2013-05-21 23:10:00,43.5,42.7,30.22,WNW,302,0.0,22.0,97,0.00,,,0.03,Wunderground v.1.15,2013-05-22 02:10:00,
2013-05-21 23:20:00,44.1,43.0,30.22,NW,309,0.0,22.0,96,0.00,,,0.03,Wunderground v.1.15,2013-05-22 02:20:00,
2013-05-21 23:30:00,44.0,42.9,30.22,NW,309,0.0,22.0,96,0.00,,,0.03,Wunderground v.1.15,2013-05-22 02:30:00,
2013-05-21 23:40:00,43.8,42.7,30.23,ENE,75,0.0,22.0,96,0.00,,,0.03,Wunderground v.1.15,2013-05-22 02:40:00,
2013-05-21 23:50:00,43.6,42.5,30.23,NNW,348,0.0,22.0,96,0.00,,,0.03,Wunderground v.1.15,2013-05-22 02:50:00,